Route Details

Aircraft Information
Group: North America Fleet
Types: B738, B752, B762, B763
Route Data
Distance: 1394nm
Duration: 3h 50m
Origin METAR: KJFK 072351Z 20014KT 10SM BKN170 BKN250 04/01 A3021 RMK AO2 SLP228 T00440011 10050 20022 58013
Dest. METAR: TJSJ 072356Z 08012KT 10SM BKN025 26/22 A3010 RMK AO2 SLP190 60011 T02560222 10289 20250 53012
Freight Data
(for Feb 8, 2023)
Load Factor:
33%
Manifested Cargo: 32,594lbs
Financial History
Total Freight: 103,073lbs
Average Load: 0lbs/flt
Fuel Used: 53,164lbs
Avg. Fuel Used: 0lbs/flt
Fuel Expense: $27,116
Avg. Fuel Expense: $0
Avg. Fuel Cost: $0/lbs
Total Gross Income: $350,448
Pilot Pay: $478
Total Expenses: $77,972
Total Revenue: $242,611
Average Revenue: $0

Capitol Logistics 463




KJFK
John F Kennedy International Airport
New York, New York
TJSJ
Luis Munoz Marin International Airport
San Juan,

Activity Log

Date Flight Route Aircraft Duration
07/21/2022 CPX463 DCT SHIPP Y489 RESQU DCT SKPPR L455 LENNT M423 PLING RTE7 SAALR DCT B762 3h 39m
07/15/2022 CPX463 DCT SHIPP Y492 SQUAD DCT DARUX L456 THANK DCT PLING RTE7 SAALR DCT B763 3h 35m